createdAt,value
2019-01-23T00:02:11.458Z,2.60
2019-01-23T00:04:39.879Z,2.70
2019-01-23T00:07:08.373Z,2.70
2019-01-23T00:09:36.783Z,2.70
2019-01-23T00:12:05.353Z,2.80
2019-01-23T00:14:33.770Z,2.80
2019-01-23T00:17:02.202Z,2.80
2019-01-23T00:19:30.610Z,2.70
2019-01-23T00:21:59.048Z,2.70
2019-01-23T00:24:27.528Z,2.80
2019-01-23T00:26:55.937Z,2.90
2019-01-23T00:29:24.377Z,3.00
2019-01-23T00:31:52.801Z,2.90
2019-01-23T00:34:21.252Z,2.90
2019-01-23T00:36:49.699Z,2.90
2019-01-23T00:39:18.133Z,2.90
2019-01-23T00:41:46.552Z,2.90
2019-01-23T00:44:14.978Z,2.90
2019-01-23T00:46:43.385Z,2.80
2019-01-23T00:49:11.824Z,2.80
2019-01-23T00:51:40.250Z,2.80
2019-01-23T00:54:08.728Z,2.90
2019-01-23T00:56:37.171Z,2.90
2019-01-23T00:59:05.585Z,2.80
2019-01-23T01:01:34.073Z,2.70
2019-01-23T01:04:02.506Z,2.80
2019-01-23T01:06:30.974Z,2.70
2019-01-23T01:08:59.426Z,2.70
2019-01-23T01:11:27.913Z,2.60
2019-01-23T01:13:56.339Z,2.60
2019-01-23T01:16:24.774Z,2.60
2019-01-23T01:18:53.255Z,2.60
2019-01-23T01:21:21.692Z,2.60
2019-01-23T01:23:50.109Z,2.60
2019-01-23T01:26:18.526Z,2.50
2019-01-23T01:28:46.971Z,2.60
2019-01-23T01:31:15.385Z,2.50
2019-01-23T01:33:43.796Z,2.50
2019-01-23T01:36:12.236Z,2.50
2019-01-23T01:38:40.924Z,2.50
2019-01-23T01:41:09.358Z,2.50
2019-01-23T01:43:37.787Z,2.50
2019-01-23T01:46:06.195Z,2.50
2019-01-23T01:48:34.620Z,2.40
2019-01-23T01:51:03.034Z,2.40
2019-01-23T01:53:31.470Z,2.40
2019-01-23T01:55:59.895Z,2.40
2019-01-23T01:58:28.329Z,2.40
2019-01-23T02:00:56.742Z,2.40
2019-01-23T02:03:25.168Z,2.40
2019-01-23T02:05:53.584Z,2.30
2019-01-23T02:08:22.000Z,2.30
2019-01-23T02:10:50.435Z,2.30
2019-01-23T02:13:18.921Z,2.30
2019-01-23T02:15:47.339Z,2.30
2019-01-23T02:18:15.828Z,2.30
2019-01-23T02:20:44.267Z,2.30
2019-01-23T02:23:12.680Z,2.30
2019-01-23T02:25:41.115Z,2.30
2019-01-23T02:28:09.527Z,2.20
2019-01-23T02:30:37.961Z,2.30
2019-01-23T02:33:06.382Z,2.30
2019-01-23T02:35:34.824Z,2.20
2019-01-23T02:38:03.238Z,2.20
2019-01-23T02:40:31.675Z,2.20
2019-01-23T02:43:00.084Z,2.10
2019-01-23T02:45:28.595Z,2.10
2019-01-23T02:47:57.020Z,2.10
2019-01-23T02:50:25.432Z,2.20
2019-01-23T02:52:53.861Z,2.20
2019-01-23T02:55:22.303Z,2.10
2019-01-23T02:57:50.731Z,2.10
2019-01-23T03:00:19.490Z,2.10
2019-01-23T03:02:48.415Z,2.10
2019-01-23T03:05:18.371Z,2.10
2019-01-23T03:07:46.953Z,2.10
2019-01-23T03:10:17.279Z,2.00
2019-01-23T03:12:45.952Z,2.00
2019-01-23T03:15:16.201Z,2.00
2019-01-23T03:17:44.785Z,2.00
2019-01-23T03:20:15.836Z,2.00
2019-01-23T03:22:44.265Z,1.90
2019-01-23T03:25:14.239Z,1.90
2019-01-23T03:27:42.794Z,1.90
2019-01-23T03:30:17.104Z,1.90
2019-01-23T03:32:45.529Z,1.80
2019-01-23T03:35:14.202Z,1.80
2019-01-23T03:37:42.678Z,1.80
2019-01-23T03:40:14.112Z,1.80
2019-01-23T03:42:42.524Z,1.80
2019-01-23T03:45:12.498Z,1.70
2019-01-23T03:47:41.046Z,1.70
2019-01-23T03:50:12.417Z,1.60
2019-01-23T03:52:40.966Z,1.60
2019-01-23T03:55:11.139Z,1.60
2019-01-23T03:57:39.625Z,1.50
2019-01-23T04:00:13.254Z,1.50
2019-01-23T04:02:41.914Z,1.50
2019-01-23T04:05:11.249Z,1.50
2019-01-23T04:07:39.755Z,1.40
2019-01-23T04:10:11.176Z,1.40
2019-01-23T04:12:39.678Z,1.30
2019-01-23T04:15:10.239Z,1.30
2019-01-23T04:17:38.683Z,1.30
2019-01-23T04:20:18.133Z,1.20
2019-01-23T04:22:46.587Z,1.20
2019-01-23T04:25:15.263Z,1.20
2019-01-23T04:27:43.689Z,1.20
2019-01-23T04:30:20.353Z,1.20
2019-01-23T04:32:48.845Z,1.10
2019-01-23T04:35:17.287Z,1.10
2019-01-23T04:37:45.841Z,1.10
2019-01-23T04:40:15.198Z,1.00
2019-01-23T04:42:43.910Z,1.00
2019-01-23T04:45:14.500Z,1.00
2019-01-23T04:47:43.011Z,1.00
2019-01-23T04:50:13.863Z,1.00
2019-01-23T04:52:43.993Z,0.90
2019-01-23T04:55:12.516Z,0.90
2019-01-23T04:57:40.921Z,0.90
2019-01-23T05:00:14.090Z,0.80
2019-01-23T05:02:42.565Z,0.80
2019-01-23T05:05:11.253Z,0.80
2019-01-23T05:07:39.663Z,0.80
2019-01-23T05:10:08.277Z,0.70
2019-01-23T05:12:36.704Z,0.70
2019-01-23T05:15:07.454Z,0.70
2019-01-23T05:17:35.888Z,0.70
2019-01-23T05:20:07.405Z,0.70
2019-01-23T05:22:35.829Z,0.60
2019-01-23T05:25:05.593Z,0.60
2019-01-23T05:27:34.021Z,0.60
2019-01-23T05:30:02.513Z,0.50
2019-01-23T05:32:30.939Z,0.50
2019-01-23T05:34:59.349Z,0.50
2019-01-23T05:37:27.783Z,0.50
2019-01-23T05:39:56.205Z,0.40
2019-01-23T05:42:24.647Z,0.40
2019-01-23T05:44:53.073Z,0.40
2019-01-23T05:47:21.507Z,0.40
2019-01-23T05:49:49.921Z,0.30
2019-01-23T05:52:18.355Z,0.30
2019-01-23T05:54:46.786Z,0.30
2019-01-23T05:57:15.220Z,0.30
2019-01-23T05:59:43.644Z,0.20
2019-01-23T06:02:12.092Z,0.20
2019-01-23T06:04:40.510Z,0.20
2019-01-23T06:07:08.931Z,0.20
2019-01-23T06:09:37.368Z,0.10
2019-01-23T06:12:05.772Z,0.10
2019-01-23T06:14:34.243Z,0.10
2019-01-23T06:17:02.658Z,0.10
2019-01-23T06:19:31.108Z,0.00
2019-01-23T06:21:59.551Z,0.00
2019-01-23T06:24:28.132Z,0.00
2019-01-23T06:26:56.544Z,0.00
2019-01-23T06:29:24.990Z,-0.10
2019-01-23T06:31:53.408Z,-0.10
2019-01-23T06:34:21.844Z,-0.10
2019-01-23T06:36:50.281Z,-0.10
2019-01-23T06:39:18.694Z,-0.10
2019-01-23T06:41:47.135Z,-0.10
2019-01-23T06:44:15.549Z,-0.20
2019-01-23T06:46:43.985Z,-0.20
2019-01-23T06:49:12.411Z,-0.20
2019-01-23T06:51:40.861Z,-0.20
2019-01-23T06:54:09.283Z,-0.20
2019-01-23T06:56:39.671Z,-0.30
2019-01-23T06:59:07.860Z,-0.30
2019-01-23T07:01:36.273Z,-0.30
2019-01-23T07:04:04.860Z,-0.30
2019-01-23T07:06:33.294Z,-0.30
2019-01-23T07:09:01.720Z,-0.30
2019-01-23T07:11:30.134Z,-0.30
2019-01-23T07:13:58.591Z,-0.30
2019-01-23T07:16:27.095Z,-0.40
2019-01-23T07:18:55.605Z,-0.50
2019-01-23T07:21:24.026Z,-0.50
2019-01-23T07:23:52.472Z,-0.50
2019-01-23T07:26:20.916Z,-0.50
2019-01-23T07:28:49.518Z,-0.50
2019-01-23T07:31:18.323Z,-0.50
2019-01-23T07:33:46.897Z,-0.60
2019-01-23T07:36:15.313Z,-0.60
2019-01-23T07:38:43.764Z,-0.60
2019-01-23T07:41:12.201Z,-0.60
2019-01-23T07:43:40.660Z,-0.60
2019-01-23T07:46:09.072Z,-0.60
2019-01-23T07:48:37.499Z,-0.60
2019-01-23T07:51:05.986Z,-0.60
2019-01-23T07:53:34.418Z,-0.60
2019-01-23T07:56:02.827Z,-0.60
2019-01-23T07:58:31.264Z,-0.60
2019-01-23T08:00:59.687Z,-0.60
2019-01-23T08:03:28.103Z,-0.60
2019-01-23T08:05:56.550Z,-0.60
2019-01-23T08:08:25.036Z,-0.60
2019-01-23T08:10:53.451Z,-0.60
2019-01-23T08:13:21.935Z,-0.60
2019-01-23T08:15:50.392Z,-0.60
2019-01-23T08:18:18.834Z,-0.60
2019-01-23T08:20:47.443Z,-0.60
2019-01-23T08:23:15.883Z,-0.60
2019-01-23T08:25:44.324Z,-0.60
2019-01-23T08:28:12.756Z,-0.60
2019-01-23T08:30:41.209Z,-0.60
2019-01-23T08:33:09.663Z,-0.50
2019-01-23T08:35:38.083Z,-0.50
2019-01-23T08:38:06.503Z,-0.50
2019-01-23T08:40:34.939Z,-0.50
2019-01-23T08:43:03.456Z,-0.50
2019-01-23T08:45:32.022Z,-0.50
2019-01-23T08:48:00.459Z,-0.50
2019-01-23T08:50:34.496Z,-0.40
2019-01-23T08:53:02.943Z,-0.40
2019-01-23T08:55:31.365Z,-0.40
2019-01-23T08:58:01.315Z,-0.40
2019-01-23T09:00:29.934Z,-0.40
2019-01-23T09:02:58.660Z,-0.50
2019-01-23T09:05:27.081Z,-0.60
2019-01-23T09:07:55.520Z,-0.60
2019-01-23T09:10:26.410Z,-0.70
2019-01-23T09:12:54.915Z,-0.70
2019-01-23T09:15:23.396Z,-0.70
2019-01-23T09:17:51.919Z,-0.70
2019-01-23T09:20:22.551Z,-0.80
2019-01-23T09:22:51.131Z,-0.80
2019-01-23T09:25:23.430Z,-0.70
2019-01-23T09:27:51.948Z,-0.70
2019-01-23T09:30:32.279Z,-0.60
2019-01-23T09:33:09.765Z,-0.60
2019-01-23T09:35:41.399Z,-0.50
2019-01-23T09:38:33.976Z,-0.50
2019-01-23T09:41:05.551Z,-0.40
2019-01-23T09:43:51.673Z,-0.30
2019-01-23T09:46:25.895Z,-0.30
2019-01-23T09:49:06.122Z,-0.30
2019-01-23T09:51:59.818Z,-0.20
2019-01-23T09:54:28.325Z,-0.10
2019-01-23T09:56:56.804Z,-0.10
2019-01-23T09:59:25.257Z,-0.10
2019-01-23T10:01:53.789Z,0.00
2019-01-23T10:04:22.260Z,0.10
2019-01-23T10:06:50.841Z,0.10
2019-01-23T10:09:19.335Z,0.10
2019-01-23T10:11:47.760Z,0.30
2019-01-23T10:14:16.292Z,0.30
2019-01-23T10:16:44.756Z,0.50
2019-01-23T10:19:13.188Z,0.60
2019-01-23T10:21:41.692Z,0.70
2019-01-23T10:24:10.133Z,0.70
2019-01-23T10:26:38.682Z,0.90
2019-01-23T10:29:07.156Z,1.00
2019-01-23T10:31:35.603Z,1.10
2019-01-23T10:34:04.204Z,1.10
2019-01-23T10:36:32.703Z,1.10
2019-01-23T10:39:01.133Z,1.20
2019-01-23T10:41:29.564Z,1.30
2019-01-23T10:43:58.048Z,1.40
2019-01-23T10:46:26.498Z,1.50
2019-01-23T10:48:54.900Z,1.50
2019-01-23T10:51:23.419Z,1.60
2019-01-23T10:53:51.832Z,1.70
2019-01-23T10:56:20.277Z,1.70
2019-01-23T10:58:48.697Z,1.70
2019-01-23T11:01:17.206Z,1.80
2019-01-23T11:03:45.696Z,1.80
2019-01-23T11:06:14.295Z,1.80
2019-01-23T11:08:42.760Z,1.90
2019-01-23T11:11:11.477Z,1.90
2019-01-23T11:13:39.925Z,1.90
2019-01-23T11:16:08.371Z,1.90
2019-01-23T11:18:36.791Z,2.00
2019-01-23T11:21:05.230Z,2.00
2019-01-23T11:23:33.715Z,2.10
2019-01-23T11:26:02.220Z,2.20
2019-01-23T11:28:30.646Z,2.10
2019-01-23T11:30:59.056Z,2.20
2019-01-23T11:33:27.490Z,2.20
2019-01-23T11:35:55.907Z,2.30
2019-01-23T11:38:24.404Z,2.20
2019-01-23T11:40:52.915Z,2.20
2019-01-23T11:43:21.323Z,2.20
2019-01-23T11:45:49.757Z,2.20
2019-01-23T11:48:19.716Z,2.30
2019-01-23T11:50:48.140Z,2.30
2019-01-23T11:53:16.568Z,2.20
2019-01-23T11:55:45.049Z,2.20
2019-01-23T11:58:13.495Z,2.20
2019-01-23T12:00:41.924Z,2.20
2019-01-23T12:03:10.353Z,2.20
2019-01-23T12:05:38.771Z,2.30
2019-01-23T12:08:07.293Z,2.30
2019-01-23T12:10:35.698Z,2.20
2019-01-23T12:13:04.255Z,2.30
2019-01-23T12:15:32.837Z,2.30
2019-01-23T12:18:01.241Z,2.30
2019-01-23T12:20:29.742Z,2.30
2019-01-23T12:22:58.231Z,2.40
2019-01-23T12:25:26.682Z,2.40
2019-01-23T12:27:55.167Z,2.30
2019-01-23T12:30:26.676Z,2.40
2019-01-23T12:32:55.194Z,2.30
2019-01-23T12:35:23.673Z,2.30
2019-01-23T12:37:52.337Z,2.30
2019-01-23T12:40:20.825Z,2.30
2019-01-23T12:42:49.321Z,2.30
2019-01-23T12:45:28.371Z,2.30
2019-01-23T12:47:56.854Z,2.30
2019-01-23T12:50:27.936Z,2.30
2019-01-23T12:52:56.349Z,2.20
2019-01-23T12:55:25.526Z,2.20
2019-01-23T12:57:54.074Z,2.20
2019-01-23T13:00:24.943Z,2.10
2019-01-23T13:02:53.508Z,2.00
2019-01-23T13:05:22.979Z,1.90
2019-01-23T13:07:52.349Z,1.90
2019-01-23T13:10:22.801Z,1.90
2019-01-23T13:12:52.191Z,2.00
2019-01-23T13:15:23.215Z,2.00
2019-01-23T13:17:51.773Z,2.10
2019-01-23T13:20:22.347Z,2.10
2019-01-23T13:22:50.910Z,2.10
2019-01-23T13:25:21.775Z,2.20
2019-01-23T13:27:51.036Z,2.20
2019-01-23T13:30:22.049Z,2.20
2019-01-23T13:32:50.609Z,2.30
2019-01-23T13:35:21.962Z,2.30
2019-01-23T13:37:50.434Z,2.30
2019-01-23T13:40:24.382Z,2.40
2019-01-23T13:42:52.880Z,2.40
2019-01-23T13:45:21.444Z,2.50
2019-01-23T13:47:50.004Z,2.50
2019-01-23T13:50:18.510Z,2.50
2019-01-23T13:52:47.008Z,2.60
2019-01-23T13:55:21.272Z,2.60
2019-01-23T13:57:49.895Z,2.60
2019-01-23T14:00:30.288Z,2.70
2019-01-23T14:02:58.797Z,2.60
2019-01-23T14:05:27.319Z,2.60
2019-01-23T14:07:55.760Z,2.60
2019-01-23T14:10:24.176Z,2.60
2019-01-23T14:12:52.694Z,2.50
2019-01-23T14:15:27.108Z,2.50
2019-01-23T14:17:55.624Z,2.50
2019-01-23T14:20:24.036Z,2.40
2019-01-23T14:22:52.560Z,2.40
2019-01-23T14:25:21.104Z,2.30
2019-01-23T14:27:49.641Z,2.30
2019-01-23T14:30:35.194Z,2.30
2019-01-23T14:33:03.776Z,2.20
2019-01-23T14:35:32.957Z,2.20
2019-01-23T14:38:01.472Z,2.20
2019-01-23T14:40:29.990Z,2.10
2019-01-23T14:42:58.435Z,2.10
2019-01-23T14:45:26.986Z,2.10
2019-01-23T14:47:55.680Z,2.00
2019-01-23T14:50:25.114Z,2.00
2019-01-23T14:52:53.816Z,2.00
2019-01-23T14:55:22.400Z,2.00
2019-01-23T14:57:51.579Z,1.90
2019-01-23T15:00:28.263Z,1.90
2019-01-23T15:02:56.813Z,1.80
2019-01-23T15:05:25.302Z,1.80
2019-01-23T15:07:53.905Z,1.80
2019-01-23T15:10:24.935Z,1.80
2019-01-23T15:12:53.840Z,1.80
2019-01-23T15:15:22.512Z,1.70
2019-01-23T15:17:51.192Z,1.70
2019-01-23T15:20:21.782Z,1.70
2019-01-23T15:22:50.209Z,1.70
2019-01-23T15:25:18.777Z,1.60
2019-01-23T15:27:47.213Z,1.60
2019-01-23T15:30:20.423Z,1.60
2019-01-23T15:32:49.072Z,1.60
2019-01-23T15:35:19.030Z,1.50
2019-01-23T15:37:47.459Z,1.50
2019-01-23T15:40:18.733Z,1.50
2019-01-23T15:42:47.188Z,1.50
2019-01-23T15:45:15.678Z,1.50
2019-01-23T15:47:44.175Z,1.50
2019-01-23T15:50:15.826Z,1.50
2019-01-23T15:52:44.265Z,1.40
2019-01-23T15:55:15.120Z,1.40
2019-01-23T15:57:43.637Z,1.40
2019-01-23T16:00:15.491Z,1.40
2019-01-23T16:02:44.826Z,1.40
2019-01-23T16:05:13.577Z,1.40
2019-01-23T16:07:42.089Z,1.40
2019-01-23T16:10:16.517Z,1.30
2019-01-23T16:12:45.032Z,1.20
2019-01-23T16:15:16.544Z,1.20
2019-01-23T16:17:45.034Z,1.20
2019-01-23T16:20:13.897Z,1.20
2019-01-23T16:22:42.377Z,1.20
2019-01-23T16:25:15.733Z,1.20
2019-01-23T16:27:45.306Z,1.20
2019-01-23T16:30:28.360Z,1.20
2019-01-23T16:32:56.873Z,1.20
2019-01-23T16:35:25.290Z,1.20
2019-01-23T16:37:53.800Z,1.10
2019-01-23T16:40:22.235Z,1.20
2019-01-23T16:42:50.655Z,1.20
2019-01-23T16:45:23.303Z,1.20
2019-01-23T16:47:51.907Z,1.20
2019-01-23T16:50:22.704Z,1.20
2019-01-23T16:52:51.120Z,1.20
2019-01-23T16:55:19.700Z,1.20
2019-01-23T16:57:48.553Z,1.20
2019-01-23T17:00:19.209Z,1.20
2019-01-23T17:02:47.801Z,1.10
2019-01-23T17:05:19.171Z,1.10
2019-01-23T17:07:47.702Z,1.10
2019-01-23T17:10:19.241Z,1.10
2019-01-23T17:12:47.662Z,1.10
2019-01-23T17:15:16.251Z,1.10
2019-01-23T17:17:44.880Z,1.10
2019-01-23T17:20:34.345Z,1.10
2019-01-23T17:23:02.932Z,1.10
2019-01-23T17:25:31.449Z,1.10
2019-01-23T17:27:59.927Z,1.10
2019-01-23T17:30:28.417Z,1.10
2019-01-23T17:32:57.680Z,1.10
2019-01-23T17:35:26.297Z,1.10
2019-01-23T17:37:54.871Z,1.00
2019-01-23T17:40:24.881Z,0.90
2019-01-23T17:42:53.397Z,0.90
2019-01-23T17:45:30.838Z,0.80
2019-01-23T17:47:59.924Z,0.80
2019-01-23T17:50:28.519Z,0.70
2019-01-23T17:52:57.018Z,0.70
2019-01-23T17:55:30.854Z,0.60
2019-01-23T17:57:59.452Z,0.60
2019-01-23T18:00:31.233Z,0.60
2019-01-23T18:02:59.798Z,0.60
2019-01-23T18:05:28.613Z,0.60
2019-01-23T18:07:57.132Z,0.60
2019-01-23T18:10:28.593Z,0.70
2019-01-23T18:13:01.236Z,0.60
2019-01-23T18:15:32.305Z,0.70
2019-01-23T18:18:00.879Z,0.70
2019-01-23T18:20:29.943Z,0.70
2019-01-23T18:22:58.664Z,0.70
2019-01-23T18:25:27.231Z,0.70
2019-01-23T18:27:55.676Z,0.70
2019-01-23T18:30:30.342Z,0.70
2019-01-23T18:33:00.312Z,0.70
2019-01-23T18:35:40.944Z,0.70
2019-01-23T18:38:15.323Z,0.70
2019-01-23T18:40:58.280Z,0.70
2019-01-23T18:43:44.455Z,0.70
2019-01-23T18:46:48.709Z,0.70
2019-01-23T18:49:36.518Z,0.70
2019-01-23T18:52:13.371Z,0.70
2019-01-23T18:54:42.921Z,0.70
2019-01-23T18:57:16.952Z,0.70
2019-01-23T18:59:45.545Z,0.70
2019-01-23T19:02:14.029Z,0.70
2019-01-23T19:04:42.621Z,0.80
2019-01-23T19:07:11.187Z,0.80
2019-01-23T19:09:39.676Z,0.80
2019-01-23T19:12:08.355Z,0.70
2019-01-23T19:14:36.903Z,0.70
2019-01-23T19:17:05.783Z,0.70
2019-01-23T19:19:34.223Z,0.70
2019-01-23T19:22:02.730Z,0.70
2019-01-23T19:24:31.173Z,0.70
2019-01-23T19:26:59.720Z,0.70
2019-01-23T19:29:28.207Z,0.70
2019-01-23T19:31:56.711Z,0.70
2019-01-23T19:34:25.143Z,0.70
2019-01-23T19:36:53.573Z,0.70
2019-01-23T19:39:22.048Z,0.60
2019-01-23T19:41:50.577Z,0.50
2019-01-23T19:44:18.983Z,0.40
2019-01-23T19:46:47.384Z,0.30
2019-01-23T19:49:15.895Z,0.30
2019-01-23T19:51:44.454Z,0.30
2019-01-23T19:54:13.049Z,0.30
2019-01-23T19:56:41.519Z,0.40
2019-01-23T19:59:10.013Z,0.30
2019-01-23T20:01:38.557Z,0.30
2019-01-23T20:04:07.056Z,0.30
2019-01-23T20:06:35.560Z,0.30
2019-01-23T20:09:07.106Z,0.30
2019-01-23T20:11:35.522Z,0.30
2019-01-23T20:14:04.298Z,0.40
2019-01-23T20:16:32.757Z,0.40
2019-01-23T20:19:02.718Z,0.30
2019-01-23T20:21:31.133Z,0.40
2019-01-23T20:23:59.641Z,0.30
2019-01-23T20:26:28.049Z,0.40
2019-01-23T20:28:56.529Z,0.30
2019-01-23T20:31:25.045Z,0.30
2019-01-23T20:33:53.541Z,0.30
2019-01-23T20:36:22.062Z,0.30
2019-01-23T20:38:50.605Z,0.30
2019-01-23T20:41:19.082Z,0.30
2019-01-23T20:43:47.508Z,0.30
2019-01-23T20:46:15.939Z,0.20
2019-01-23T20:48:44.351Z,0.30
2019-01-23T20:51:12.773Z,0.30
2019-01-23T20:53:42.141Z,0.30
2019-01-23T20:56:10.701Z,0.30
2019-01-23T20:58:39.203Z,0.30
2019-01-23T21:01:07.884Z,0.30
2019-01-23T21:03:36.420Z,0.30
2019-01-23T21:06:05.348Z,0.30
2019-01-23T21:08:33.752Z,0.30
2019-01-23T21:11:02.255Z,0.30
2019-01-23T21:13:30.928Z,0.30
2019-01-23T21:15:59.324Z,0.30
2019-01-23T21:18:27.760Z,0.30
2019-01-23T21:20:56.162Z,0.30
2019-01-23T21:23:24.609Z,0.30
2019-01-23T21:25:53.108Z,0.30
2019-01-23T21:28:21.547Z,0.20
2019-01-23T21:30:49.969Z,0.10
2019-01-23T21:33:18.514Z,0.10
2019-01-23T21:35:47.068Z,0.20
2019-01-23T21:38:15.733Z,0.30
2019-01-23T21:40:44.304Z,0.30
2019-01-23T21:43:12.855Z,0.40
2019-01-23T21:45:41.310Z,0.40
2019-01-23T21:48:09.752Z,0.40
2019-01-23T21:50:38.292Z,0.50
2019-01-23T21:53:07.203Z,0.50
2019-01-23T21:55:35.615Z,0.60
2019-01-23T21:58:04.768Z,0.60
2019-01-23T22:00:36.097Z,0.60
2019-01-23T22:03:06.787Z,0.70
2019-01-23T22:05:35.264Z,0.70
2019-01-23T22:08:04.141Z,0.70
2019-01-23T22:10:32.567Z,0.80
2019-01-23T22:13:01.002Z,0.80
2019-01-23T22:15:31.412Z,0.80
2019-01-23T22:18:00.052Z,0.90
2019-01-23T22:20:29.533Z,0.90
2019-01-23T22:22:57.980Z,0.90
2019-01-23T22:25:26.414Z,1.00
2019-01-23T22:27:55.393Z,1.00
2019-01-23T22:30:29.560Z,1.00
2019-01-23T22:32:58.112Z,1.10
2019-01-23T22:35:26.675Z,1.10
2019-01-23T22:37:55.218Z,1.10
2019-01-23T22:40:23.873Z,1.10
2019-01-23T22:42:52.588Z,1.10
2019-01-23T22:45:21.957Z,1.10
2019-01-23T22:47:50.556Z,1.10
2019-01-23T22:50:21.408Z,1.10
2019-01-23T22:52:50.149Z,1.10
2019-01-23T22:55:18.964Z,1.10
2019-01-23T22:57:47.620Z,1.20
2019-01-23T23:00:32.175Z,1.20
2019-01-23T23:03:03.093Z,1.10
2019-01-23T23:05:31.641Z,1.20
2019-01-23T23:08:00.045Z,1.20
2019-01-23T23:10:28.561Z,1.20
2019-01-23T23:12:56.988Z,1.10
2019-01-23T23:15:25.407Z,1.10
2019-01-23T23:17:55.380Z,1.10
2019-01-23T23:20:23.888Z,1.10
2019-01-23T23:22:52.301Z,1.20
2019-01-23T23:25:20.729Z,1.10
2019-01-23T23:27:49.220Z,1.10
2019-01-23T23:30:24.734Z,1.10
2019-01-23T23:32:53.145Z,1.10
2019-01-23T23:35:21.652Z,1.20
2019-01-23T23:37:50.060Z,1.20
2019-01-23T23:40:18.648Z,1.20
2019-01-23T23:42:47.058Z,1.20
2019-01-23T23:45:17.220Z,1.20
2019-01-23T23:47:45.726Z,1.20
2019-01-23T23:50:16.250Z,1.10
2019-01-23T23:52:44.869Z,1.20
2019-01-23T23:55:14.923Z,1.10
2019-01-23T23:57:43.573Z,1.20
